createdAt,value
2022-10-01T00:00:56.023Z,88.54
2022-10-01T00:01:56.131Z,88.13
2022-10-01T00:02:55.257Z,87.73
2022-10-01T00:03:55.952Z,88.24
2022-10-01T00:04:55.893Z,87.73
2022-10-01T00:05:55.823Z,88.65
2022-10-01T00:06:55.983Z,88.85
2022-10-01T00:08:17.076Z,87.93
2022-10-01T00:08:55.923Z,88.13
2022-10-01T00:10:17.364Z,88.04
2022-10-01T00:10:55.944Z,88.54
2022-10-01T00:12:17.454Z,88.34
2022-10-01T00:12:55.904Z,88.44
2022-10-01T00:14:17.524Z,88.34
2022-10-01T00:14:55.845Z,88.44
2022-10-01T00:16:18.327Z,88.75
2022-10-01T00:16:56.330Z,88.24
2022-10-01T00:27:04.258Z,88.04
2022-10-01T00:38:36.646Z,87.99
2022-10-01T00:45:43.662Z,88.85
2022-10-01T00:46:26.785Z,88.54
2022-10-01T00:47:26.634Z,88.44
2022-10-01T00:50:12.616Z,88.75
2022-10-01T00:53:39.650Z,88.65
2022-10-01T00:54:27.630Z,88.95
2022-10-01T00:55:26.939Z,88.75
2022-10-01T00:59:15.285Z,88.91
2022-10-01T01:00:16.946Z,88.10
2022-10-01T01:01:16.115Z,88.60
2022-10-01T01:02:16.026Z,87.79
2022-10-01T01:03:16.075Z,87.79
2022-10-01T01:04:15.960Z,87.49
2022-10-01T01:05:16.015Z,88.20
2022-10-01T01:06:15.905Z,88.20
2022-10-01T01:07:16.056Z,88.20
2022-10-01T01:08:15.965Z,88.10
2022-10-01T01:09:37.166Z,87.38
2022-10-01T01:10:16.241Z,88.10
2022-10-01T01:11:37.758Z,87.79
2022-10-01T01:12:16.065Z,88.91
2022-10-01T01:13:37.405Z,88.60
2022-10-01T01:14:16.536Z,88.36
2022-10-01T01:15:37.524Z,87.55
2022-10-01T01:16:17.093Z,87.24
2022-10-01T01:17:37.005Z,86.63
2022-10-01T01:18:15.886Z,86.98
2022-10-01T01:19:37.755Z,87.59
2022-10-01T01:20:15.857Z,88.20
2022-10-01T01:21:37.548Z,88.50
2022-10-01T01:22:17.057Z,88.44
2022-10-01T01:23:37.220Z,88.44
2022-10-01T01:24:15.734Z,88.50
2022-10-01T01:25:37.446Z,88.34
2022-10-01T01:26:16.555Z,88.44
2022-10-01T01:27:37.445Z,88.75
2022-10-01T01:28:16.182Z,88.95
2022-10-01T01:29:37.845Z,89.91
2022-10-01T01:30:16.584Z,90.01
2022-10-01T01:31:38.034Z,90.01
2022-10-01T01:32:15.215Z,90.01
2022-10-01T01:33:15.705Z,89.76
2022-10-01T01:34:36.905Z,89.46
2022-10-01T01:35:15.735Z,89.36
2022-10-01T01:36:15.605Z,89.36
2022-10-01T01:37:37.456Z,89.56
2022-10-01T01:38:15.574Z,89.05
2022-10-01T01:39:15.665Z,89.15
2022-10-01T01:40:37.305Z,88.71
2022-10-01T01:41:16.465Z,88.60
2022-10-01T01:42:36.685Z,88.71
2022-10-01T01:43:16.435Z,88.91
2022-10-01T01:44:37.456Z,89.11
2022-10-01T01:45:15.446Z,88.91
2022-10-01T01:46:37.564Z,89.11
2022-10-01T01:47:15.426Z,88.71
2022-10-01T01:48:37.364Z,88.50
2022-10-01T01:49:15.994Z,88.91
2022-10-01T01:50:37.406Z,89.11
2022-10-01T01:51:15.606Z,89.31
2022-10-01T09:44:08.860Z,74.22
2022-10-01T09:45:09.369Z,75.23
2022-10-01T09:46:09.112Z,74.22
2022-10-01T09:47:08.999Z,74.93
2022-10-01T09:48:08.962Z,74.12
2022-10-01T09:49:08.842Z,74.43
2022-10-01T09:50:08.861Z,74.93
2022-10-01T09:51:08.922Z,73.75
2022-10-01T09:52:09.041Z,74.73
2022-10-01T09:53:08.831Z,74.43
2022-10-01T09:54:08.679Z,73.82
2022-10-01T09:55:08.730Z,73.42
2022-10-01T09:56:08.563Z,74.16
2022-10-01T09:57:09.570Z,72.24
2022-10-01T09:58:08.692Z,73.62
2022-10-01T09:59:08.779Z,72.91
2022-10-01T10:00:08.649Z,72.31
2022-10-01T10:01:08.739Z,73.58
2022-10-01T10:02:08.667Z,72.58
2022-10-01T10:03:09.386Z,71.64
2022-10-01T10:04:08.829Z,72.27
2022-10-01T10:05:08.902Z,71.67
2022-10-01T10:06:08.640Z,72.47
2022-10-01T10:07:08.630Z,73.18
2022-10-01T10:08:09.219Z,72.67
2022-10-01T10:09:08.510Z,72.67
2022-10-01T10:10:08.571Z,72.38
2022-10-01T10:11:08.571Z,71.94
2022-10-01T10:12:08.670Z,70.09
2022-10-01T10:13:09.479Z,70.12
2022-10-01T10:14:08.640Z,70.19
2022-10-01T10:15:08.390Z,67.14
2022-10-01T10:16:08.669Z,66.54
2022-10-01T10:17:08.612Z,67.21
2022-10-01T10:18:08.484Z,66.61
2022-10-01T10:19:08.562Z,67.51
2022-10-01T10:20:08.531Z,67.28
2022-10-01T10:21:08.490Z,65.08
2022-10-01T10:22:08.439Z,62.05
2022-10-01T10:23:08.522Z,62.01
2022-10-01T10:24:08.619Z,60.44
2022-10-01T10:25:08.519Z,61.07
2022-10-01T10:26:08.290Z,61.64
2022-10-01T10:27:08.430Z,62.47
2022-10-01T10:28:08.335Z,62.70
2022-10-01T10:29:07.597Z,63.70
2022-10-01T10:30:08.382Z,63.50
2022-10-01T10:31:08.508Z,63.28
2022-10-01T10:32:08.329Z,62.84
2022-10-01T10:33:08.359Z,61.88
2022-10-01T10:34:08.239Z,57.19
2022-10-01T10:35:08.340Z,58.19
2022-10-01T10:36:08.209Z,57.29
2022-10-01T10:37:08.120Z,56.52
2022-10-01T10:38:08.280Z,59.77
2022-10-01T10:39:08.086Z,57.69
2022-10-01T10:40:08.282Z,57.68
2022-10-01T10:41:08.139Z,60.47
2022-10-01T10:42:08.439Z,62.60
2022-10-01T10:43:09.111Z,61.58
2022-10-01T10:44:08.270Z,57.34
2022-10-01T10:45:08.062Z,55.96
2022-10-01T10:46:08.231Z,55.19
2022-10-01T10:47:08.101Z,54.44
2022-10-01T10:48:08.263Z,56.29
2022-10-01T10:49:08.098Z,59.02
2022-10-01T10:50:08.206Z,58.75
2022-10-01T10:51:08.341Z,56.74
2022-10-01T10:52:07.909Z,57.24
2022-10-01T10:53:08.190Z,58.05
2022-10-01T10:54:08.003Z,57.00
2022-10-01T10:55:08.141Z,58.13
2022-10-01T10:56:07.892Z,59.74
2022-10-01T10:57:08.092Z,57.93
2022-10-01T10:58:08.741Z,57.83
2022-10-01T10:59:08.100Z,58.66
2022-10-01T11:00:07.900Z,58.73
2022-10-01T11:01:08.050Z,60.41
2022-10-01T11:02:08.143Z,58.00
2022-10-01T11:03:08.260Z,59.00
2022-10-01T11:04:07.930Z,58.50
2022-10-01T11:05:08.111Z,58.18
2022-10-01T11:06:08.140Z,58.20
2022-10-01T11:07:08.070Z,58.00
2022-10-01T11:08:09.132Z,58.00
2022-10-01T11:09:07.871Z,59.70
2022-10-01T11:10:07.960Z,59.18
2022-10-01T11:11:07.845Z,58.07
2022-10-01T11:12:07.961Z,58.37
2022-10-01T11:13:07.991Z,58.07
2022-10-01T11:14:07.890Z,57.37
2022-10-01T11:15:07.779Z,58.81
2022-10-01T11:16:08.006Z,59.41
2022-10-01T11:17:07.890Z,57.90
2022-10-01T11:18:07.900Z,57.30
2022-10-01T11:19:07.880Z,58.30
2022-10-01T11:20:08.050Z,58.70
2022-10-01T11:21:08.110Z,58.70
2022-10-01T11:22:07.789Z,58.20
2022-10-01T11:23:07.881Z,59.11
2022-10-01T11:24:07.670Z,59.61
2022-10-01T11:25:08.351Z,58.61
2022-10-01T11:26:07.629Z,58.00
2022-10-01T11:27:07.761Z,59.31
2022-10-01T11:28:07.693Z,58.20
2022-10-01T11:29:07.801Z,56.90
2022-10-01T11:30:07.582Z,58.40
2022-10-01T11:31:07.864Z,56.63
2022-10-01T11:32:07.791Z,59.59
2022-10-01T11:33:07.863Z,58.99
2022-10-01T11:34:07.681Z,60.19
2022-10-01T11:35:07.710Z,58.89
2022-10-01T11:36:08.169Z,59.19
2022-10-01T11:37:07.669Z,61.17
2022-10-01T11:38:07.600Z,59.46
2022-10-01T11:39:07.522Z,60.16
2022-10-01T11:40:07.633Z,60.64
2022-10-01T11:41:07.730Z,59.00
2022-10-01T11:42:07.660Z,57.43
2022-10-01T11:43:07.859Z,59.94
2022-10-01T11:44:08.389Z,58.00
2022-10-01T11:45:08.049Z,58.81
2022-10-01T11:46:07.718Z,58.11
2022-10-01T11:47:07.501Z,57.30
2022-10-01T11:48:07.665Z,57.70
2022-10-01T11:49:07.490Z,57.87
2022-10-01T11:50:07.470Z,56.77
2022-10-01T11:51:08.180Z,57.30
2022-10-01T11:52:07.456Z,57.43
2022-10-01T11:53:08.481Z,57.73
2022-10-01T11:54:07.380Z,56.83
2022-10-01T11:55:08.180Z,57.23
2022-10-01T11:56:07.370Z,58.23
2022-10-01T11:57:07.635Z,56.73
2022-10-01T11:58:06.620Z,56.43
2022-10-01T11:59:07.637Z,58.43
2022-10-01T12:00:07.270Z,56.63
2022-10-01T12:01:07.670Z,58.70
2022-10-01T12:02:07.894Z,56.98
2022-10-01T12:03:07.381Z,57.00
2022-10-01T12:04:07.322Z,56.60
2022-10-01T12:05:08.288Z,54.52
2022-10-01T12:06:07.384Z,54.85
2022-10-01T12:07:07.480Z,57.13
2022-10-01T12:08:07.283Z,57.13
2022-10-01T12:09:07.820Z,56.10
2022-10-01T12:10:07.360Z,56.40
2022-10-01T12:11:08.261Z,55.32
2022-10-01T12:12:07.289Z,54.95
2022-10-01T12:13:07.109Z,55.15
2022-10-01T12:14:07.249Z,55.95
2022-10-01T12:15:08.150Z,55.85
2022-10-01T12:16:07.404Z,56.43
2022-10-01T12:17:07.179Z,55.73
2022-10-01T12:18:07.641Z,54.82
2022-10-01T12:19:07.102Z,55.28
2022-10-01T12:20:07.185Z,56.28
2022-10-01T12:21:07.222Z,55.38
2022-10-01T12:22:07.321Z,55.58
2022-10-01T12:23:07.200Z,55.28
2022-10-01T12:24:07.032Z,55.98
2022-10-01T12:25:07.800Z,56.38
2022-10-01T12:26:06.969Z,56.28
2022-10-01T12:27:08.039Z,55.47
2022-10-01T12:28:07.016Z,55.88
2022-10-01T12:29:07.110Z,55.38
2022-10-01T12:30:06.981Z,55.78
2022-10-01T12:31:07.282Z,55.28
2022-10-01T12:32:07.011Z,55.78
2022-10-01T12:33:07.720Z,55.40
2022-10-01T12:34:06.980Z,55.30
2022-10-01T12:35:07.179Z,55.40
2022-10-01T12:36:07.001Z,55.51
2022-10-01T12:37:07.110Z,55.91
2022-10-01T12:38:07.089Z,55.20
2022-10-01T12:39:07.810Z,55.60
2022-10-01T12:40:07.019Z,55.88
2022-10-01T12:41:06.781Z,55.20
2022-10-01T12:42:07.050Z,55.00
2022-10-01T12:43:07.138Z,55.08
2022-10-01T12:44:13.438Z,56.51
2022-10-01T12:45:06.839Z,57.81
2022-10-01T12:46:07.157Z,55.71
2022-10-01T12:47:06.828Z,55.91
2022-10-01T12:48:06.508Z,57.51
2022-10-01T12:49:07.718Z,56.43
2022-10-01T12:50:06.902Z,56.43
2022-10-01T12:51:06.858Z,57.77
2022-10-01T12:52:06.900Z,57.67
2022-10-01T12:53:06.901Z,57.06
2022-10-01T12:54:08.594Z,57.26
2022-10-01T12:55:06.840Z,58.00
2022-10-01T12:56:06.637Z,57.97
2022-10-01T12:57:06.077Z,57.50
2022-10-01T12:58:06.668Z,58.70
2022-10-01T12:59:06.937Z,59.50
2022-10-01T13:00:06.689Z,59.10
2022-10-01T13:01:06.850Z,58.17
2022-10-01T13:02:06.795Z,58.57
2022-10-01T13:03:07.292Z,58.67
2022-10-01T13:04:06.648Z,59.47
2022-10-01T13:05:06.748Z,58.37
2022-10-01T13:06:06.838Z,58.94
2022-10-01T13:07:06.741Z,58.14
2022-10-01T13:08:07.222Z,56.96
2022-10-01T13:09:07.338Z,57.19
2022-10-01T13:10:06.698Z,58.60
2022-10-01T13:11:06.619Z,59.10
2022-10-01T13:12:06.809Z,58.80
2022-10-01T13:13:06.599Z,59.30
2022-10-01T13:14:06.619Z,60.00
2022-10-01T13:15:06.609Z,59.10
2022-10-01T13:16:06.992Z,58.60
2022-10-01T13:17:06.558Z,58.90
2022-10-01T13:18:06.748Z,58.70
2022-10-01T13:19:07.020Z,58.29
2022-10-01T13:20:06.568Z,58.00
2022-10-01T13:21:06.502Z,58.53
2022-10-01T13:22:06.540Z,59.43
2022-10-01T13:23:06.500Z,59.53
2022-10-01T13:24:07.238Z,58.83
2022-10-01T13:25:06.556Z,58.12
2022-10-01T13:26:06.337Z,58.75
2022-10-01T13:27:06.587Z,58.86
2022-10-01T13:28:06.397Z,59.56
2022-10-01T13:29:06.677Z,59.96
2022-10-01T13:30:06.417Z,60.06
2022-10-01T13:31:06.476Z,59.96
2022-10-01T13:32:06.349Z,60.53
2022-10-01T13:33:06.398Z,59.74
2022-10-01T18:55:28.906Z,79.22
2022-10-01T18:56:21.226Z,78.81
2022-10-01T19:10:24.813Z,80.13
2022-10-01T19:11:14.521Z,79.79
2022-10-01T19:12:11.312Z,79.59
2022-10-01T19:13:10.141Z,79.79
2022-10-01T19:14:09.400Z,79.99
2022-10-01T19:15:11.031Z,79.90
2022-10-01T19:16:10.120Z,79.99
2022-10-01T19:17:09.355Z,79.99
2022-10-01T19:18:11.391Z,80.30
2022-10-01T19:19:10.720Z,80.10
2022-10-01T19:20:09.312Z,79.90
2022-10-01T19:21:11.020Z,79.79
2022-10-01T19:22:09.831Z,79.75
2022-10-01T19:23:09.311Z,79.25
2022-10-01T19:24:10.560Z,79.25
2022-10-01T19:25:09.350Z,79.99
